»·PEaware :: DAL1782 KSLC-KDEN

DAL1782 :: KSLC-KDEN

FLIGHT INFORMATION

Flight Status: Arrived
Operator:
Delta Air Lines
More flights by this operator :: More flights under this callsign
Pilot: Joe P. (13940)
Aircraft: MCDONNELL-DOUGLAS MD-82
(MD82)
More flights by this aircraft type
Origin: KSLC Salt Lake City Intl
United States
Destination: KDEN Denver Intl
United States
More flights between these airports :: More routes between these airports
Route: +LEETZ6 CHE KAILE2
File this flight plan on PilotEdge
Remarks: SEL / ABCD KCOS -PBN / B3B4B5D3D4 DOF / 180505 REG / N904DL EET / KZDV0026
Altitude:
(Current/Filed)
310ft
Speed:
(Current/Filed)
432kts
Departed: 05-May-18 12:14 PM
Arrived: 05-May-18 01:20 PM
Distance/Time
Traveled:
339nm/1:06
Distance/Time
To Go:
Arrived

Flight Plot

Page will automatically refresh every two minutes.

Flight plan parsing failed; only flown route is shown


Map Options




Map Legend


Flown Route
Filed Route
Departure Airport
Arrival Airport
Navaid (VOR, NDB)
Fix

Horizontal Profiles

Position Reports

Time Latitude Longitude Heading Altitude Ground
Speed
05-May-18 11:28 40.785586 -111.978056 231 4236ft 0kts
05-May-18 11:29 40.785586 -111.978056 231 4236ft 0kts
05-May-18 11:30 40.785586 -111.978056 231 4236ft 0kts
05-May-18 11:31 40.785586 -111.978056 231 4236ft 0kts
05-May-18 11:32 40.785586 -111.978056 231 4236ft 0kts
05-May-18 11:33 40.785586 -111.978056 231 4236ft 0kts
05-May-18 11:34 40.785586 -111.978056 231 4236ft 0kts
05-May-18 11:35 40.785586 -111.978056 231 4236ft 0kts
05-May-18 11:36 40.785586 -111.978056 231 4236ft 0kts
05-May-18 11:37 40.785586 -111.978056 231 4236ft 0kts
05-May-18 11:38 40.785586 -111.978056 231 4236ft 0kts
05-May-18 11:39 40.785586 -111.978056 231 4236ft 0kts
05-May-18 11:40 40.785586 -111.978056 231 4236ft 0kts
05-May-18 11:40 40.785586 -111.978056 231 4236ft 0kts
05-May-18 11:41 40.785586 -111.978056 231 4236ft 0kts
05-May-18 11:42 40.785586 -111.978056 231 4236ft 0kts
05-May-18 11:43 40.785586 -111.978056 231 4236ft 0kts
05-May-18 11:44 40.785586 -111.978056 231 4236ft 0kts
05-May-18 11:45 40.785586 -111.978056 231 4236ft 0kts
05-May-18 11:47 40.785586 -111.978056 231 4236ft 0kts
05-May-18 11:47 40.785586 -111.978056 231 4236ft 0kts
05-May-18 11:48 40.785586 -111.978056 231 4236ft 0kts
05-May-18 11:49 40.785586 -111.978056 231 4236ft 0kts
05-May-18 11:50 40.785586 -111.978056 231 4236ft 0kts
05-May-18 11:51 40.785586 -111.978056 231 4236ft 0kts
05-May-18 11:52 40.785586 -111.978056 231 4236ft 0kts
05-May-18 11:53 40.785586 -111.978056 231 4236ft 0kts
05-May-18 11:54 40.785586 -111.978056 231 4236ft 0kts
05-May-18 11:55 40.785586 -111.978056 231 4236ft 0kts
05-May-18 11:56 40.785586 -111.978056 231 4236ft 0kts
05-May-18 11:57 40.785586 -111.978056 231 4236ft 0kts
05-May-18 11:58 40.785586 -111.978056 231 4236ft 0kts
05-May-18 11:59 40.785586 -111.978056 231 4236ft 0kts
05-May-18 12:00 40.785622 -111.977995 231 4236ft 1kts
05-May-18 12:01 40.785858 -111.977120 271 4236ft 2kts
05-May-18 12:02 40.785798 -111.976673 288 4236ft 0kts
05-May-18 12:03 40.785799 -111.976676 288 4236ft 0kts
05-May-18 12:04 40.785800 -111.976679 288 4236ft 0kts
05-May-18 12:05 40.785801 -111.976682 288 4236ft 0kts
05-May-18 12:06 40.787262 -111.976997 2 4236ft 11kts
05-May-18 12:07 40.792481 -111.977410 355 4236ft 19kts
05-May-18 12:08 40.798166 -111.978084 354 4236ft 18kts
05-May-18 12:09 40.803049 -111.978664 354 4236ft 16kts
05-May-18 12:10 40.807279 -111.978919 34 4236ft 13kts
05-May-18 12:11 40.807419 -111.977358 117 4236ft 3kts
05-May-18 12:12 40.805605 -111.976663 174 4236ft 14kts
05-May-18 12:13 40.786564 -111.974504 173 4236ft 159kts
05-May-18 12:14 40.738645 -111.970988 198 6942ft 171kts
05-May-18 12:15 40.729418 -112.036214 306 8123ft 259kts
05-May-18 12:16 40.782786 -112.104925 317 10819ft 273kts
05-May-18 12:17 40.838634 -112.172741 315 13445ft 276kts
05-May-18 12:18 40.901234 -112.231371 344 15752ft 286kts
05-May-18 12:19 40.981840 -112.244637 352 17464ft 294kts
05-May-18 12:20 41.039783 -112.174091 81 18869ft 337kts
05-May-18 12:21 41.022465 -112.050290 116 20511ft 352kts
05-May-18 12:22 40.984892 -111.928415 106 22150ft 365kts
05-May-18 12:23 40.960466 -111.795392 105 23294ft 374kts
05-May-18 12:24 40.933870 -111.662829 106 23301ft 376kts
05-May-18 12:25 40.916229 -111.520419 94 23753ft 412kts
05-May-18 12:26 40.907060 -111.364631 97 24833ft 435kts
05-May-18 12:27 40.886937 -111.204737 99 26172ft 447kts
05-May-18 12:29 40.866991 -111.041041 97 27394ft 456kts
05-May-18 12:30 40.847078 -110.873729 97 28473ft 464kts
05-May-18 12:31 40.826533 -110.704277 97 29411ft 471kts
05-May-18 12:32 40.805795 -110.534163 96 30836ft 464kts
05-May-18 12:33 40.785045 -110.364953 96 31432ft 478kts
05-May-18 12:34 40.762274 -110.193252 97 31389ft 477kts
05-May-18 12:35 40.741349 -110.020978 93 31380ft 474kts
05-May-18 12:36 40.729460 -109.848958 91 31369ft 471kts
05-May-18 12:37 40.717774 -109.676995 92 31363ft 472kts
05-May-18 12:38 40.705471 -109.504665 91 31357ft 472kts
05-May-18 12:39 40.692622 -109.332926 92 31359ft 472kts
05-May-18 12:40 40.679458 -109.160650 91 31357ft 470kts
05-May-18 12:41 40.666579 -108.989336 91 31353ft 470kts
05-May-18 12:42 40.653037 -108.818358 91 31358ft 468kts
05-May-18 12:43 40.639202 -108.647259 91 31372ft 467kts
05-May-18 12:44 40.625492 -108.477055 91 31371ft 468kts
05-May-18 12:45 40.611747 -108.306761 91 31373ft 469kts
05-May-18 12:46 40.597336 -108.136290 91 31381ft 469kts
05-May-18 12:47 40.582914 -107.966519 91 31388ft 467kts
05-May-18 12:48 40.568243 -107.797379 91 31397ft 467kts
05-May-18 12:49 40.552727 -107.627489 92 31398ft 467kts
05-May-18 12:50 40.535467 -107.458077 91 31405ft 466kts
05-May-18 12:51 40.520677 -107.288466 90 31424ft 467kts
05-May-18 12:52 40.509799 -107.119241 88 31420ft 464kts
05-May-18 12:53 40.501378 -106.950101 88 31416ft 465kts
05-May-18 12:54 40.492193 -106.780202 87 31415ft 466kts
05-May-18 12:55 40.482090 -106.611409 88 31424ft 466kts
05-May-18 12:56 40.472427 -106.442361 87 31437ft 464kts
05-May-18 12:57 40.462750 -106.273231 88 31454ft 461kts
05-May-18 12:58 40.451899 -106.105569 88 31465ft 460kts
05-May-18 12:59 40.438756 -105.937477 95 30793ft 463kts
05-May-18 13:00 40.410391 -105.771517 98 30460ft 465kts
05-May-18 13:01 40.384025 -105.605474 97 30161ft 466kts
05-May-18 13:02 40.350776 -105.441292 114 29597ft 473kts
05-May-18 13:03 40.275794 -105.303354 131 26874ft 462kts
05-May-18 13:04 40.190780 -105.177226 130 23093ft 463kts
05-May-18 13:05 40.110570 -105.050318 129 19125ft 429kts
05-May-18 13:06 40.037318 -104.936437 130 15163ft 394kts
05-May-18 13:07 39.962032 -104.841916 163 11335ft 360kts
05-May-18 13:08 39.868758 -104.820148 172 10995ft 339kts
05-May-18 13:09 39.785318 -104.811807 180 10995ft 269kts
05-May-18 13:10 39.710305 -104.811399 181 10823ft 269kts
05-May-18 13:11 39.635778 -104.812805 182 9938ft 266kts
05-May-18 13:12 39.563826 -104.805773 146 8381ft 261kts
05-May-18 13:13 39.548833 -104.723574 69 7993ft 245kts
05-May-18 13:14 39.596369 -104.668016 38 8009ft 224kts
05-May-18 13:15 39.653263 -104.661520 2 8008ft 211kts
05-May-18 13:16 39.709639 -104.662873 359 7688ft 181kts
05-May-18 13:17 39.754528 -104.661307 2 6905ft 154kts
05-May-18 13:18 39.798192 -104.660811 0 6078ft 155kts
05-May-18 13:19 39.840661 -104.660436 0 5440ft 125kts
05-May-18 13:20 39.851478 -104.662452 347 5440ft 16kts
05-May-18 13:21 39.852406 -104.665151 294 5440ft 0kts
05-May-18 13:22 39.852545 -104.665562 299 5440ft 5kts
05-May-18 13:23 39.853585 -104.667790 267 5440ft 4kts
05-May-18 13:24 39.853576 -104.668156 267 5440ft 0kts
05-May-18 13:25 39.853574 -104.668163 271 5440ft 0kts
05-May-18 13:26 39.853574 -104.668163 271 5440ft 0kts

Navigation Log

Ident Type
Flight plan parsing failed, navigation log unavailable